Ardmore, North Carolina
Current Conditions -  °F | °C
As of 9:54 AM on Thursday 30 Oct 2014 (Local Time) from KINT Reporting Station
Clear Clear  
Wind Chill: 56°   Ceiling: Unl
Heat Index: 56°   Visibility: 10mi
Dew Point: 37°   Wind: 7mph
Humidity: 49%   Direction: 360°N
Pressure: 30.09"   Gusts: NA
Location:  36.0595°N, 80.3192°W
Report Text: KINT 301354Z 36006KT 10SM CLR 13/03 A3009 RMK AO2 SLP187 T01330028
Loading
Personal Weather Stations






























Interactive Weather Map New forecast layout! Learn more

10-Day Weather Forecast

Advertisements
Track Severe Weather on mobile